sensor_id;sensor_type;location;lat;lon;timestamp;P1;durP1;ratioP1;P2;durP2;ratioP2
76599;SDS011;65489;52.048;6.090;2023-03-01T00:01:02;1.13;;;0.50;;
76599;SDS011;65489;52.048;6.090;2023-03-01T00:03:31;0.70;;;0.50;;
76599;SDS011;65489;52.048;6.090;2023-03-01T00:05:57;0.70;;;0.60;;
76599;SDS011;65489;52.048;6.090;2023-03-01T00:08:23;0.77;;;0.57;;
76599;SDS011;65489;52.048;6.090;2023-03-01T00:10:49;0.60;;;0.40;;
76599;SDS011;65489;52.048;6.090;2023-03-01T00:13:14;0.93;;;0.65;;
76599;SDS011;65489;52.048;6.090;2023-03-01T00:15:40;0.70;;;0.52;;
76599;SDS011;65489;52.048;6.090;2023-03-01T00:18:07;0.90;;;0.57;;
76599;SDS011;65489;52.048;6.090;2023-03-01T00:20:33;1.88;;;0.70;;
76599;SDS011;65489;52.048;6.090;2023-03-01T00:22:59;0.80;;;0.50;;
76599;SDS011;65489;52.048;6.090;2023-03-01T00:25:24;0.70;;;0.50;;
76599;SDS011;65489;52.048;6.090;2023-03-01T00:27:49;0.80;;;0.55;;
76599;SDS011;65489;52.048;6.090;2023-03-01T00:30:15;0.82;;;0.60;;
76599;SDS011;65489;52.048;6.090;2023-03-01T00:32:41;1.08;;;0.60;;
76599;SDS011;65489;52.048;6.090;2023-03-01T00:35:06;1.33;;;0.60;;
76599;SDS011;65489;52.048;6.090;2023-03-01T00:37:32;0.60;;;0.57;;
76599;SDS011;65489;52.048;6.090;2023-03-01T00:39:57;0.70;;;0.40;;
76599;SDS011;65489;52.048;6.090;2023-03-01T00:42:23;0.80;;;0.50;;
76599;SDS011;65489;52.048;6.090;2023-03-01T00:44:48;1.00;;;0.68;;
76599;SDS011;65489;52.048;6.090;2023-03-01T00:47:14;1.25;;;0.85;;
76599;SDS011;65489;52.048;6.090;2023-03-01T00:49:39;1.20;;;0.60;;
76599;SDS011;65489;52.048;6.090;2023-03-01T00:52:05;0.90;;;0.60;;
76599;SDS011;65489;52.048;6.090;2023-03-01T00:54:30;0.82;;;0.60;;
76599;SDS011;65489;52.048;6.090;2023-03-01T00:56:56;1.08;;;0.70;;
76599;SDS011;65489;52.048;6.090;2023-03-01T00:59:21;0.80;;;0.60;;
76599;SDS011;65489;52.048;6.090;2023-03-01T01:01:47;1.10;;;0.60;;
76599;SDS011;65489;52.048;6.090;2023-03-01T01:04:12;1.17;;;0.70;;
76599;SDS011;65489;52.048;6.090;2023-03-01T01:06:39;1.23;;;0.63;;
76599;SDS011;65489;52.048;6.090;2023-03-01T01:09:10;1.00;;;0.68;;
76599;SDS011;65489;52.048;6.090;2023-03-01T01:11:42;1.35;;;0.65;;
76599;SDS011;65489;52.048;6.090;2023-03-01T01:14:13;0.73;;;0.60;;
76599;SDS011;65489;52.048;6.090;2023-03-01T01:16:39;0.90;;;0.50;;
76599;SDS011;65489;52.048;6.090;2023-03-01T01:19:04;0.98;;;0.73;;
76599;SDS011;65489;52.048;6.090;2023-03-01T01:21:30;1.00;;;0.60;;
76599;SDS011;65489;52.048;6.090;2023-03-01T01:23:56;0.80;;;0.60;;
76599;SDS011;65489;52.048;6.090;2023-03-01T01:26:23;0.90;;;0.70;;
76599;SDS011;65489;52.048;6.090;2023-03-01T01:28:50;1.15;;;0.60;;
76599;SDS011;65489;52.048;6.090;2023-03-01T01:31:16;1.05;;;0.80;;
76599;SDS011;65489;52.048;6.090;2023-03-01T01:33:42;1.00;;;0.65;;
76599;SDS011;65489;52.048;6.090;2023-03-01T01:36:08;1.20;;;0.70;;
76599;SDS011;65489;52.048;6.090;2023-03-01T01:38:33;1.88;;;0.90;;
76599;SDS011;65489;52.048;6.090;2023-03-01T01:40:59;1.30;;;0.65;;
76599;SDS011;65489;52.048;6.090;2023-03-01T01:43:26;0.70;;;0.60;;
76599;SDS011;65489;52.048;6.090;2023-03-01T01:45:57;1.00;;;0.77;;
76599;SDS011;65489;52.048;6.090;2023-03-01T01:48:26;1.27;;;0.90;;
76599;SDS011;65489;52.048;6.090;2023-03-01T01:51:05;1.48;;;0.80;;
76599;SDS011;65489;52.048;6.090;2023-03-01T01:53:34;0.75;;;0.55;;
76599;SDS011;65489;52.048;6.090;2023-03-01T01:56:00;0.82;;;0.63;;
76599;SDS011;65489;52.048;6.090;2023-03-01T01:58:26;0.95;;;0.80;;
76599;SDS011;65489;52.048;6.090;2023-03-01T02:00:54;1.17;;;0.80;;
76599;SDS011;65489;52.048;6.090;2023-03-01T02:03:22;1.05;;;0.65;;
76599;SDS011;65489;52.048;6.090;2023-03-01T02:08:20;1.30;;;0.90;;
76599;SDS011;65489;52.048;6.090;2023-03-01T02:10:47;1.02;;;0.70;;
76599;SDS011;65489;52.048;6.090;2023-03-01T02:13:13;0.80;;;0.60;;
76599;SDS011;65489;52.048;6.090;2023-03-01T02:15:39;1.35;;;0.93;;
76599;SDS011;65489;52.048;6.090;2023-03-01T02:18:05;1.02;;;0.88;;
76599;SDS011;65489;52.048;6.090;2023-03-01T02:23:13;1.40;;;0.88;;
76599;SDS011;65489;52.048;6.090;2023-03-01T02:25:51;1.00;;;0.70;;
76599;SDS011;65489;52.048;6.090;2023-03-01T02:28:24;0.82;;;0.70;;
76599;SDS011;65489;52.048;6.090;2023-03-01T02:30:52;1.40;;;0.90;;
76599;SDS011;65489;52.048;6.090;2023-03-01T02:33:37;1.10;;;0.80;;
76599;SDS011;65489;52.048;6.090;2023-03-01T02:36:05;2.25;;;0.90;;
76599;SDS011;65489;52.048;6.090;2023-03-01T02:40:58;1.65;;;0.70;;
76599;SDS011;65489;52.048;6.090;2023-03-01T02:43:26;1.13;;;0.80;;
76599;SDS011;65489;52.048;6.090;2023-03-01T02:45:57;2.33;;;0.90;;
76599;SDS011;65489;52.048;6.090;2023-03-01T02:48:23;1.67;;;1.00;;
76599;SDS011;65489;52.048;6.090;2023-03-01T02:51:33;1.20;;;0.90;;
76599;SDS011;65489;52.048;6.090;2023-03-01T02:56:30;1.00;;;0.70;;
76599;SDS011;65489;52.048;6.090;2023-03-01T02:58:56;1.02;;;0.77;;
76599;SDS011;65489;52.048;6.090;2023-03-01T03:01:26;1.00;;;0.80;;
76599;SDS011;65489;52.048;6.090;2023-03-01T03:04:02;1.15;;;0.80;;
76599;SDS011;65489;52.048;6.090;2023-03-01T03:06:36;1.00;;;0.80;;
76599;SDS011;65489;52.048;6.090;2023-03-01T03:09:02;1.02;;;0.70;;
76599;SDS011;65489;52.048;6.090;2023-03-01T03:11:29;1.10;;;0.90;;
76599;SDS011;65489;52.048;6.090;2023-03-01T03:13:55;1.05;;;0.85;;
76599;SDS011;65489;52.048;6.090;2023-03-01T03:16:21;1.30;;;0.80;;
76599;SDS011;65489;52.048;6.090;2023-03-01T03:18:47;1.35;;;1.00;;
76599;SDS011;65489;52.048;6.090;2023-03-01T03:21:13;1.35;;;0.90;;
76599;SDS011;65489;52.048;6.090;2023-03-01T03:23:38;1.13;;;0.90;;
76599;SDS011;65489;52.048;6.090;2023-03-01T03:26:04;0.93;;;0.75;;
76599;SDS011;65489;52.048;6.090;2023-03-01T03:28:31;2.28;;;0.80;;
76599;SDS011;65489;52.048;6.090;2023-03-01T03:30:57;1.63;;;1.00;;
76599;SDS011;65489;52.048;6.090;2023-03-01T03:33:23;1.40;;;1.00;;
76599;SDS011;65489;52.048;6.090;2023-03-01T03:35:49;1.42;;;1.05;;
76599;SDS011;65489;52.048;6.090;2023-03-01T03:38:15;1.30;;;0.80;;
76599;SDS011;65489;52.048;6.090;2023-03-01T03:40:46;0.98;;;0.80;;
76599;SDS011;65489;52.048;6.090;2023-03-01T03:43:17;1.30;;;0.80;;
76599;SDS011;65489;52.048;6.090;2023-03-01T03:45:48;1.00;;;0.80;;
76599;SDS011;65489;52.048;6.090;2023-03-01T03:48:14;1.15;;;0.90;;
76599;SDS011;65489;52.048;6.090;2023-03-01T03:50:40;1.42;;;0.98;;
76599;SDS011;65489;52.048;6.090;2023-03-01T03:53:07;1.48;;;0.90;;
76599;SDS011;65489;52.048;6.090;2023-03-01T03:55:34;1.25;;;0.88;;
76599;SDS011;65489;52.048;6.090;2023-03-01T03:58:01;1.45;;;1.00;;
76599;SDS011;65489;52.048;6.090;2023-03-01T04:00:31;1.02;;;0.80;;
76599;SDS011;65489;52.048;6.090;2023-03-01T04:02:58;1.33;;;0.80;;
76599;SDS011;65489;52.048;6.090;2023-03-01T04:05:23;1.02;;;0.82;;
76599;SDS011;65489;52.048;6.090;2023-03-01T04:07:49;1.10;;;0.85;;
76599;SDS011;65489;52.048;6.090;2023-03-01T04:10:27;1.10;;;0.82;;
76599;SDS011;65489;52.048;6.090;2023-03-01T04:12:53;1.00;;;0.80;;
76599;SDS011;65489;52.048;6.090;2023-03-01T04:15:21;1.42;;;0.98;;
76599;SDS011;65489;52.048;6.090;2023-03-01T04:17:49;1.23;;;0.80;;
76599;SDS011;65489;52.048;6.090;2023-03-01T04:20:16;1.30;;;0.82;;
76599;SDS011;65489;52.048;6.090;2023-03-01T04:22:49;1.00;;;0.80;;
76599;SDS011;65489;52.048;6.090;2023-03-01T04:25:22;1.00;;;0.77;;
76599;SDS011;65489;52.048;6.090;2023-03-01T04:27:51;1.00;;;0.90;;
76599;SDS011;65489;52.048;6.090;2023-03-01T04:30:16;0.93;;;0.80;;
76599;SDS011;65489;52.048;6.090;2023-03-01T04:32:42;1.27;;;0.82;;
76599;SDS011;65489;52.048;6.090;2023-03-01T04:35:07;1.00;;;0.90;;
76599;SDS011;65489;52.048;6.090;2023-03-01T04:37:33;1.73;;;0.90;;
76599;SDS011;65489;52.048;6.090;2023-03-01T04:40:00;1.30;;;0.90;;
76599;SDS011;65489;52.048;6.090;2023-03-01T04:42:25;1.38;;;0.80;;
76599;SDS011;65489;52.048;6.090;2023-03-01T04:44:51;1.20;;;0.95;;
76599;SDS011;65489;52.048;6.090;2023-03-01T04:47:17;1.83;;;1.00;;
76599;SDS011;65489;52.048;6.090;2023-03-01T04:49:42;0.95;;;0.73;;
76599;SDS011;65489;52.048;6.090;2023-03-01T04:52:08;1.30;;;0.93;;
76599;SDS011;65489;52.048;6.090;2023-03-01T04:54:34;1.35;;;1.10;;
76599;SDS011;65489;52.048;6.090;2023-03-01T04:57:01;1.02;;;0.80;;
76599;SDS011;65489;52.048;6.090;2023-03-01T04:59:27;0.93;;;0.75;;
76599;SDS011;65489;52.048;6.090;2023-03-01T05:01:53;0.98;;;0.80;;
76599;SDS011;65489;52.048;6.090;2023-03-01T05:04:20;1.20;;;0.80;;
76599;SDS011;65489;52.048;6.090;2023-03-01T05:06:46;1.23;;;0.80;;
76599;SDS011;65489;52.048;6.090;2023-03-01T05:09:12;1.00;;;0.80;;
76599;SDS011;65489;52.048;6.090;2023-03-01T05:11:37;1.30;;;0.95;;
76599;SDS011;65489;52.048;6.090;2023-03-01T05:14:03;1.25;;;0.90;;
76599;SDS011;65489;52.048;6.090;2023-03-01T05:16:29;1.48;;;1.00;;
76599;SDS011;65489;52.048;6.090;2023-03-01T05:18:56;1.23;;;0.90;;
76599;SDS011;65489;52.048;6.090;2023-03-01T05:21:22;1.10;;;0.80;;
76599;SDS011;65489;52.048;6.090;2023-03-01T05:23:48;1.10;;;0.90;;
76599;SDS011;65489;52.048;6.090;2023-03-01T05:26:13;1.00;;;0.80;;
76599;SDS011;65489;52.048;6.090;2023-03-01T05:28:40;1.13;;;0.80;;
76599;SDS011;65489;52.048;6.090;2023-03-01T05:31:05;1.23;;;0.70;;
76599;SDS011;65489;52.048;6.090;2023-03-01T05:33:38;0.93;;;0.80;;
76599;SDS011;65489;52.048;6.090;2023-03-01T05:36:04;1.00;;;0.75;;
76599;SDS011;65489;52.048;6.090;2023-03-01T05:38:31;1.13;;;0.90;;
76599;SDS011;65489;52.048;6.090;2023-03-01T05:40:56;0.90;;;0.70;;
76599;SDS011;65489;52.048;6.090;2023-03-01T05:43:22;1.65;;;0.90;;
76599;SDS011;65489;52.048;6.090;2023-03-01T05:45:47;1.38;;;0.90;;
76599;SDS011;65489;52.048;6.090;2023-03-01T05:48:13;1.00;;;0.73;;
76599;SDS011;65489;52.048;6.090;2023-03-01T05:50:43;1.40;;;1.00;;
76599;SDS011;65489;52.048;6.090;2023-03-01T05:53:13;1.15;;;0.80;;
76599;SDS011;65489;52.048;6.090;2023-03-01T05:55:44;0.90;;;0.73;;
76599;SDS011;65489;52.048;6.090;2023-03-01T05:58:13;1.42;;;0.90;;
76599;SDS011;65489;52.048;6.090;2023-03-01T06:00:40;1.33;;;0.98;;
76599;SDS011;65489;52.048;6.090;2023-03-01T06:03:05;1.20;;;0.80;;
76599;SDS011;65489;52.048;6.090;2023-03-01T06:05:31;1.02;;;0.70;;
76599;SDS011;65489;52.048;6.090;2023-03-01T06:08:00;1.30;;;0.88;;
76599;SDS011;65489;52.048;6.090;2023-03-01T06:10:25;1.10;;;0.90;;
76599;SDS011;65489;52.048;6.090;2023-03-01T06:12:51;0.82;;;0.73;;
76599;SDS011;65489;52.048;6.090;2023-03-01T06:15:17;0.88;;;0.63;;
76599;SDS011;65489;52.048;6.090;2023-03-01T06:17:43;1.58;;;0.90;;
76599;SDS011;65489;52.048;6.090;2023-03-01T06:20:11;0.90;;;0.60;;
76599;SDS011;65489;52.048;6.090;2023-03-01T06:22:40;0.98;;;0.80;;
76599;SDS011;65489;52.048;6.090;2023-03-01T06:25:07;1.50;;;0.68;;
76599;SDS011;65489;52.048;6.090;2023-03-01T06:27:33;1.55;;;1.00;;
76599;SDS011;65489;52.048;6.090;2023-03-01T06:29:58;1.33;;;0.73;;
76599;SDS011;65489;52.048;6.090;2023-03-01T06:32:24;0.80;;;0.70;;
76599;SDS011;65489;52.048;6.090;2023-03-01T06:34:49;1.10;;;0.88;;
76599;SDS011;65489;52.048;6.090;2023-03-01T06:37:15;0.95;;;0.63;;
76599;SDS011;65489;52.048;6.090;2023-03-01T06:39:40;1.50;;;0.77;;
76599;SDS011;65489;52.048;6.090;2023-03-01T06:42:07;0.90;;;0.80;;
76599;SDS011;65489;52.048;6.090;2023-03-01T06:44:35;0.80;;;0.80;;
76599;SDS011;65489;52.048;6.090;2023-03-01T06:47:01;1.45;;;0.80;;
76599;SDS011;65489;52.048;6.090;2023-03-01T06:49:27;0.90;;;0.77;;
76599;SDS011;65489;52.048;6.090;2023-03-01T06:51:52;1.10;;;0.93;;
76599;SDS011;65489;52.048;6.090;2023-03-01T06:54:17;0.80;;;0.70;;
76599;SDS011;65489;52.048;6.090;2023-03-01T06:56:46;0.60;;;0.57;;
76599;SDS011;65489;52.048;6.090;2023-03-01T06:59:12;0.88;;;0.80;;
76599;SDS011;65489;52.048;6.090;2023-03-01T07:01:37;1.20;;;0.80;;
76599;SDS011;65489;52.048;6.090;2023-03-01T07:04:03;0.98;;;0.88;;
76599;SDS011;65489;52.048;6.090;2023-03-01T07:06:29;1.13;;;0.80;;
76599;SDS011;65489;52.048;6.090;2023-03-01T07:08:54;1.70;;;1.10;;
76599;SDS011;65489;52.048;6.090;2023-03-01T07:11:20;0.82;;;0.80;;
76599;SDS011;65489;52.048;6.090;2023-03-01T07:13:45;1.35;;;1.10;;
76599;SDS011;65489;52.048;6.090;2023-03-01T07:16:11;1.20;;;0.90;;
76599;SDS011;65489;52.048;6.090;2023-03-01T07:18:36;1.52;;;1.10;;
76599;SDS011;65489;52.048;6.090;2023-03-01T07:21:08;1.05;;;0.82;;
76599;SDS011;65489;52.048;6.090;2023-03-01T07:23:34;0.73;;;0.70;;
76599;SDS011;65489;52.048;6.090;2023-03-01T07:26:00;1.40;;;1.00;;
76599;SDS011;65489;52.048;6.090;2023-03-01T07:28:26;1.90;;;0.90;;
76599;SDS011;65489;52.048;6.090;2023-03-01T07:30:51;1.33;;;0.98;;
76599;SDS011;65489;52.048;6.090;2023-03-01T07:33:17;1.40;;;1.00;;
76599;SDS011;65489;52.048;6.090;2023-03-01T07:35:42;1.30;;;1.02;;
76599;SDS011;65489;52.048;6.090;2023-03-01T07:38:08;1.17;;;0.95;;
76599;SDS011;65489;52.048;6.090;2023-03-01T07:40:33;1.75;;;0.82;;
76599;SDS011;65489;52.048;6.090;2023-03-01T07:42:59;1.35;;;0.93;;
76599;SDS011;65489;52.048;6.090;2023-03-01T07:45:26;1.42;;;1.10;;
76599;SDS011;65489;52.048;6.090;2023-03-01T07:47:52;1.48;;;0.98;;
76599;SDS011;65489;52.048;6.090;2023-03-01T07:50:18;1.40;;;0.88;;
76599;SDS011;65489;52.048;6.090;2023-03-01T07:52:47;1.40;;;1.00;;
76599;SDS011;65489;52.048;6.090;2023-03-01T07:55:14;1.83;;;1.00;;
76599;SDS011;65489;52.048;6.090;2023-03-01T07:57:40;1.42;;;0.93;;
76599;SDS011;65489;52.048;6.090;2023-03-01T08:00:06;1.65;;;1.10;;
76599;SDS011;65489;52.048;6.090;2023-03-01T08:02:37;1.40;;;1.15;;
76599;SDS011;65489;52.048;6.090;2023-03-01T08:05:03;1.15;;;0.85;;
76599;SDS011;65489;52.048;6.090;2023-03-01T08:07:28;1.40;;;1.10;;
76599;SDS011;65489;52.048;6.090;2023-03-01T08:09:54;1.30;;;1.00;;
76599;SDS011;65489;52.048;6.090;2023-03-01T08:12:19;1.67;;;1.00;;
76599;SDS011;65489;52.048;6.090;2023-03-01T08:14:45;1.38;;;0.93;;
76599;SDS011;65489;52.048;6.090;2023-03-01T08:17:13;1.52;;;1.00;;
76599;SDS011;65489;52.048;6.090;2023-03-01T08:19:38;2.33;;;1.27;;
76599;SDS011;65489;52.048;6.090;2023-03-01T08:22:04;1.30;;;1.00;;
76599;SDS011;65489;52.048;6.090;2023-03-01T08:24:29;1.48;;;1.08;;
76599;SDS011;65489;52.048;6.090;2023-03-01T08:26:55;1.15;;;0.90;;
76599;SDS011;65489;52.048;6.090;2023-03-01T08:29:20;1.48;;;1.25;;
76599;SDS011;65489;52.048;6.090;2023-03-01T08:31:46;1.33;;;1.00;;
76599;SDS011;65489;52.048;6.090;2023-03-01T08:34:13;1.38;;;1.00;;
76599;SDS011;65489;52.048;6.090;2023-03-01T08:36:40;1.25;;;1.00;;
76599;SDS011;65489;52.048;6.090;2023-03-01T08:39:07;2.15;;;1.25;;
76599;SDS011;65489;52.048;6.090;2023-03-01T08:41:33;2.67;;;0.88;;
76599;SDS011;65489;52.048;6.090;2023-03-01T08:43:58;1.48;;;1.00;;
76599;SDS011;65489;52.048;6.090;2023-03-01T08:46:27;0.77;;;0.60;;
76599;SDS011;65489;52.048;6.090;2023-03-01T08:48:54;1.67;;;0.95;;
76599;SDS011;65489;52.048;6.090;2023-03-01T08:51:20;1.42;;;0.80;;
76599;SDS011;65489;52.048;6.090;2023-03-01T08:53:46;1.38;;;1.05;;
76599;SDS011;65489;52.048;6.090;2023-03-01T08:56:12;1.48;;;0.90;;
76599;SDS011;65489;52.048;6.090;2023-03-01T08:58:38;1.00;;;0.80;;
76599;SDS011;65489;52.048;6.090;2023-03-01T09:01:11;1.38;;;0.95;;
76599;SDS011;65489;52.048;6.090;2023-03-01T09:03:38;1.50;;;1.10;;
76599;SDS011;65489;52.048;6.090;2023-03-01T09:06:04;1.25;;;0.70;;
76599;SDS011;65489;52.048;6.090;2023-03-01T09:08:30;1.20;;;0.90;;
76599;SDS011;65489;52.048;6.090;2023-03-01T09:10:56;1.38;;;0.77;;
76599;SDS011;65489;52.048;6.090;2023-03-01T09:13:21;2.63;;;0.88;;
76599;SDS011;65489;52.048;6.090;2023-03-01T09:15:49;0.82;;;0.60;;
76599;SDS011;65489;52.048;6.090;2023-03-01T09:18:15;2.13;;;0.90;;
76599;SDS011;65489;52.048;6.090;2023-03-01T09:20:40;1.27;;;0.80;;
76599;SDS011;65489;52.048;6.090;2023-03-01T09:23:06;1.20;;;0.88;;
76599;SDS011;65489;52.048;6.090;2023-03-01T09:25:33;1.15;;;0.90;;
76599;SDS011;65489;52.048;6.090;2023-03-01T09:27:59;1.45;;;0.90;;
76599;SDS011;65489;52.048;6.090;2023-03-01T09:30:24;1.38;;;0.80;;
76599;SDS011;65489;52.048;6.090;2023-03-01T09:32:50;1.00;;;0.70;;
76599;SDS011;65489;52.048;6.090;2023-03-01T09:35:15;1.17;;;0.80;;
76599;SDS011;65489;52.048;6.090;2023-03-01T09:37:41;1.13;;;0.90;;
76599;SDS011;65489;52.048;6.090;2023-03-01T09:40:14;1.20;;;0.80;;
76599;SDS011;65489;52.048;6.090;2023-03-01T09:45:41;1.40;;;0.95;;
76599;SDS011;65489;52.048;6.090;2023-03-01T09:48:12;1.52;;;0.90;;
76599;SDS011;65489;52.048;6.090;2023-03-01T09:50:41;1.27;;;0.98;;
76599;SDS011;65489;52.048;6.090;2023-03-01T09:53:13;1.65;;;0.80;;
76599;SDS011;65489;52.048;6.090;2023-03-01T09:58:37;0.80;;;0.57;;
76599;SDS011;65489;52.048;6.090;2023-03-01T10:06:35;1.10;;;0.75;;
76599;SDS011;65489;52.048;6.090;2023-03-01T10:09:10;0.77;;;0.55;;
76599;SDS011;65489;52.048;6.090;2023-03-01T10:11:38;1.00;;;0.80;;
76599;SDS011;65489;52.048;6.090;2023-03-01T10:14:16;1.05;;;0.75;;
76599;SDS011;65489;52.048;6.090;2023-03-01T10:17:08;1.25;;;0.80;;
76599;SDS011;65489;52.048;6.090;2023-03-01T10:19:39;1.25;;;0.80;;
76599;SDS011;65489;52.048;6.090;2023-03-01T10:22:17;1.02;;;0.80;;
76599;SDS011;65489;52.048;6.090;2023-03-01T10:24:48;1.35;;;0.80;;
76599;SDS011;65489;52.048;6.090;2023-03-01T10:27:19;0.98;;;0.70;;
76599;SDS011;65489;52.048;6.090;2023-03-01T10:29:57;1.98;;;0.60;;
76599;SDS011;65489;52.048;6.090;2023-03-01T10:34:52;1.50;;;0.70;;
76599;SDS011;65489;52.048;6.090;2023-03-01T10:37:19;1.25;;;0.80;;
76599;SDS011;65489;52.048;6.090;2023-03-01T10:39:56;2.28;;;0.80;;
76599;SDS011;65489;52.048;6.090;2023-03-01T10:42:25;1.65;;;0.98;;
76599;SDS011;65489;52.048;6.090;2023-03-01T10:44:53;1.20;;;0.70;;
76599;SDS011;65489;52.048;6.090;2023-03-01T10:50:01;1.70;;;0.77;;
76599;SDS011;65489;52.048;6.090;2023-03-01T10:52:33;1.58;;;0.80;;
76599;SDS011;65489;52.048;6.090;2023-03-01T10:58:06;2.67;;;0.80;;
76599;SDS011;65489;52.048;6.090;2023-03-01T11:00:33;2.08;;;0.98;;
76599;SDS011;65489;52.048;6.090;2023-03-01T11:03:12;1.92;;;0.88;;
76599;SDS011;65489;52.048;6.090;2023-03-01T11:08:33;1.60;;;0.85;;
76599;SDS011;65489;52.048;6.090;2023-03-01T11:11:06;2.95;;;1.10;;
76599;SDS011;65489;52.048;6.090;2023-03-01T11:13:32;2.47;;;1.40;;
76599;SDS011;65489;52.048;6.090;2023-03-01T11:15:58;2.78;;;1.23;;
76599;SDS011;65489;52.048;6.090;2023-03-01T11:18:28;2.97;;;1.30;;
76599;SDS011;65489;52.048;6.090;2023-03-01T11:20:54;4.65;;;1.70;;
76599;SDS011;65489;52.048;6.090;2023-03-01T11:23:20;3.60;;;1.52;;
76599;SDS011;65489;52.048;6.090;2023-03-01T11:25:54;2.78;;;1.33;;
76599;SDS011;65489;52.048;6.090;2023-03-01T11:28:21;4.55;;;2.33;;
76599;SDS011;65489;52.048;6.090;2023-03-01T11:31:01;6.00;;;2.13;;
76599;SDS011;65489;52.048;6.090;2023-03-01T11:33:41;9.25;;;2.80;;
76599;SDS011;65489;52.048;6.090;2023-03-01T11:38:41;6.03;;;2.88;;
76599;SDS011;65489;52.048;6.090;2023-03-01T11:41:10;8.48;;;2.85;;
76599;SDS011;65489;52.048;6.090;2023-03-01T11:43:54;7.03;;;2.78;;
76599;SDS011;65489;52.048;6.090;2023-03-01T11:49:12;7.13;;;3.28;;
76599;SDS011;65489;52.048;6.090;2023-03-01T11:57:44;5.13;;;2.90;;
76599;SDS011;65489;52.048;6.090;2023-03-01T12:00:46;6.68;;;3.10;;
76599;SDS011;65489;52.048;6.090;2023-03-01T12:25:37;5.80;;;2.63;;
76599;SDS011;65489;52.048;6.090;2023-03-01T12:28:09;5.47;;;2.38;;
76599;SDS011;65489;52.048;6.090;2023-03-01T12:33:38;5.55;;;2.30;;
76599;SDS011;65489;52.048;6.090;2023-03-01T12:36:23;3.88;;;2.00;;
76599;SDS011;65489;52.048;6.090;2023-03-01T12:39:15;3.50;;;1.80;;
76599;SDS011;65489;52.048;6.090;2023-03-01T12:47:51;3.53;;;2.00;;
76599;SDS011;65489;52.048;6.090;2023-03-01T12:50:36;3.90;;;2.00;;
76599;SDS011;65489;52.048;6.090;2023-03-01T12:53:23;5.75;;;2.08;;
76599;SDS011;65489;52.048;6.090;2023-03-01T12:55:49;4.22;;;1.65;;
76599;SDS011;65489;52.048;6.090;2023-03-01T13:09:31;2.72;;;1.48;;
76599;SDS011;65489;52.048;6.090;2023-03-01T13:18:11;4.30;;;1.40;;
76599;SDS011;65489;52.048;6.090;2023-03-01T13:20:46;2.20;;;1.37;;
76599;SDS011;65489;52.048;6.090;2023-03-01T13:29:11;2.50;;;1.20;;
76599;SDS011;65489;52.048;6.090;2023-03-01T13:33:52;3.22;;;1.40;;
76599;SDS011;65489;52.048;6.090;2023-03-01T13:38:56;2.00;;;1.20;;
76599;SDS011;65489;52.048;6.090;2023-03-01T13:44:13;2.35;;;1.25;;
76599;SDS011;65489;52.048;6.090;2023-03-01T13:46:51;2.45;;;1.40;;
76599;SDS011;65489;52.048;6.090;2023-03-01T13:49:19;2.65;;;1.40;;
76599;SDS011;65489;52.048;6.090;2023-03-01T13:51:47;2.50;;;1.30;;
76599;SDS011;65489;52.048;6.090;2023-03-01T13:54:14;3.03;;;1.20;;
76599;SDS011;65489;52.048;6.090;2023-03-01T13:56:42;2.58;;;1.30;;
76599;SDS011;65489;52.048;6.090;2023-03-01T13:59:15;3.80;;;1.55;;
76599;SDS011;65489;52.048;6.090;2023-03-01T14:01:43;2.75;;;1.45;;
76599;SDS011;65489;52.048;6.090;2023-03-01T14:04:42;1.67;;;1.10;;
76599;SDS011;65489;52.048;6.090;2023-03-01T14:09:42;2.03;;;1.08;;
76599;SDS011;65489;52.048;6.090;2023-03-01T14:12:26;1.80;;;1.15;;
76599;SDS011;65489;52.048;6.090;2023-03-01T14:20:27;2.83;;;1.20;;
76599;SDS011;65489;52.048;6.090;2023-03-01T14:22:58;1.33;;;0.93;;
76599;SDS011;65489;52.048;6.090;2023-03-01T14:25:26;2.05;;;1.10;;
76599;SDS011;65489;52.048;6.090;2023-03-01T14:27:57;1.98;;;1.08;;
76599;SDS011;65489;52.048;6.090;2023-03-01T14:30:30;1.83;;;1.00;;
76599;SDS011;65489;52.048;6.090;2023-03-01T14:32:58;2.13;;;1.15;;
76599;SDS011;65489;52.048;6.090;2023-03-01T14:35:27;3.05;;;1.02;;
76599;SDS011;65489;52.048;6.090;2023-03-01T14:37:53;2.30;;;1.10;;
76599;SDS011;65489;52.048;6.090;2023-03-01T14:40:20;1.30;;;0.80;;
76599;SDS011;65489;52.048;6.090;2023-03-01T14:42:49;1.30;;;0.90;;
76599;SDS011;65489;52.048;6.090;2023-03-01T14:45:14;1.60;;;0.73;;
76599;SDS011;65489;52.048;6.090;2023-03-01T14:47:39;1.67;;;1.00;;
76599;SDS011;65489;52.048;6.090;2023-03-01T14:50:09;1.90;;;1.10;;
76599;SDS011;65489;52.048;6.090;2023-03-01T14:52:46;1.48;;;1.02;;
76599;SDS011;65489;52.048;6.090;2023-03-01T14:55:19;1.20;;;0.90;;
76599;SDS011;65489;52.048;6.090;2023-03-01T14:57:47;2.10;;;1.08;;
76599;SDS011;65489;52.048;6.090;2023-03-01T15:00:24;1.73;;;1.00;;
76599;SDS011;65489;52.048;6.090;2023-03-01T15:02:53;1.90;;;1.00;;
76599;SDS011;65489;52.048;6.090;2023-03-01T15:05:27;1.25;;;0.85;;
76599;SDS011;65489;52.048;6.090;2023-03-01T15:07:54;2.55;;;0.93;;
76599;SDS011;65489;52.048;6.090;2023-03-01T15:10:22;1.13;;;0.85;;
76599;SDS011;65489;52.048;6.090;2023-03-01T15:12:52;1.95;;;1.00;;
76599;SDS011;65489;52.048;6.090;2023-03-01T15:15:34;4.07;;;1.10;;
76599;SDS011;65489;52.048;6.090;2023-03-01T15:18:14;2.85;;;1.20;;
76599;SDS011;65489;52.048;6.090;2023-03-01T15:20:42;1.58;;;0.90;;
76599;SDS011;65489;52.048;6.090;2023-03-01T15:23:17;1.38;;;0.80;;
76599;SDS011;65489;52.048;6.090;2023-03-01T15:25:44;1.38;;;0.90;;
76599;SDS011;65489;52.048;6.090;2023-03-01T15:28:12;2.45;;;0.90;;
76599;SDS011;65489;52.048;6.090;2023-03-01T15:30:43;1.83;;;0.90;;
76599;SDS011;65489;52.048;6.090;2023-03-01T15:33:19;1.10;;;0.75;;
76599;SDS011;65489;52.048;6.090;2023-03-01T15:36:00;1.13;;;0.80;;
76599;SDS011;65489;52.048;6.090;2023-03-01T15:38:51;2.88;;;0.90;;
76599;SDS011;65489;52.048;6.090;2023-03-01T15:41:26;3.28;;;0.80;;
76599;SDS011;65489;52.048;6.090;2023-03-01T15:43:56;1.73;;;0.80;;
76599;SDS011;65489;52.048;6.090;2023-03-01T15:46:32;0.98;;;0.68;;
76599;SDS011;65489;52.048;6.090;2023-03-01T15:49:45;2.22;;;0.90;;
76599;SDS011;65489;52.048;6.090;2023-03-01T15:52:04;1.45;;;0.90;;
76599;SDS011;65489;52.048;6.090;2023-03-01T15:54:31;1.92;;;0.98;;
76599;SDS011;65489;52.048;6.090;2023-03-01T15:56:56;1.00;;;0.68;;
76599;SDS011;65489;52.048;6.090;2023-03-01T15:59:22;1.88;;;0.90;;
76599;SDS011;65489;52.048;6.090;2023-03-01T16:01:47;1.67;;;0.85;;
76599;SDS011;65489;52.048;6.090;2023-03-01T16:04:14;2.67;;;0.93;;
76599;SDS011;65489;52.048;6.090;2023-03-01T16:06:48;1.65;;;0.63;;
76599;SDS011;65489;52.048;6.090;2023-03-01T16:09:19;2.03;;;0.80;;
76599;SDS011;65489;52.048;6.090;2023-03-01T16:11:46;2.53;;;0.70;;
76599;SDS011;65489;52.048;6.090;2023-03-01T16:14:11;1.05;;;0.80;;
76599;SDS011;65489;52.048;6.090;2023-03-01T16:16:37;2.35;;;0.82;;
76599;SDS011;65489;52.048;6.090;2023-03-01T16:19:02;1.35;;;0.98;;
76599;SDS011;65489;52.048;6.090;2023-03-01T16:21:28;1.95;;;0.90;;
76599;SDS011;65489;52.048;6.090;2023-03-01T16:23:53;1.58;;;0.80;;
76599;SDS011;65489;52.048;6.090;2023-03-01T16:26:19;1.50;;;0.80;;
76599;SDS011;65489;52.048;6.090;2023-03-01T16:28:44;1.42;;;0.47;;
76599;SDS011;65489;52.048;6.090;2023-03-01T16:31:10;1.63;;;0.80;;
76599;SDS011;65489;52.048;6.090;2023-03-01T16:33:36;1.00;;;0.80;;
76599;SDS011;65489;52.048;6.090;2023-03-01T16:36:06;1.25;;;0.70;;
76599;SDS011;65489;52.048;6.090;2023-03-01T16:38:33;1.52;;;0.90;;
76599;SDS011;65489;52.048;6.090;2023-03-01T16:40:59;2.35;;;0.68;;
76599;SDS011;65489;52.048;6.090;2023-03-01T16:43:25;2.22;;;0.73;;
76599;SDS011;65489;52.048;6.090;2023-03-01T16:45:51;0.98;;;0.88;;
76599;SDS011;65489;52.048;6.090;2023-03-01T16:48:16;2.15;;;0.80;;
76599;SDS011;65489;52.048;6.090;2023-03-01T16:50:42;1.95;;;0.90;;